Kezdőlap
METAR-TAF:

METAR-TAF

Repülőterek :

Kuala Terengganu, Malajzia

földrajzi szélesség: 05-22-53N, földrajzi hosszúság: 103-06-17E, magasság: 6 m

Jelenlegi meteorológiai megfigyelések

A jelentés 23 perccel ezelõtt készült, 14:00 UTC
Különbözõ irányokból fújó szél 3 kt
Hőmérséklet 30°C
Páratartalom 84%
Légköri nyomás 1012 hPa
Látótávolság 10 km, vagy több
Szórványos felhőzet 2200 lábon

METAR: WMKN 311400Z VRB03KT 9999 SCT022 30/27 Q1012

Idő: 22:23 (14:23 UTC)

Előrejelzés

A jelentés 3 órával és 23 perccel ezelõtt készült, 11:00 UTC
Az előrejelzés 31-én 12 óra UTC és 01-én 12 óra UTC között érvényes
Különbözõ irányokból fújó szél 3 kt
Látótávolság 10 km, vagy több
Kevés felhő 2200 lábon
31-én 22 óra UTC és 01-én 00 óra UTC között fokozatosan kialakuló
Kevés felhő 1800 lábon

TAF: WMKN 311100Z 3112/0112 VRB03KT 9999 FEW022 BECMG 3122/0100 FEW018

Meteorológiai megfigyelések és előrejelzések több, mint 4000 repülőtéren (METAR és TAF jelentéseket).

A térképen piros és sárga pontok jelzik az elérhető meteorológiai állomásokat.

Mozgassa az egeret a pont fölött, hogy megjelenjen az állomás neve.

Azután kattintson az időjárási megfigyelések és előrejelzések megtekintéséhez.

A térkép megváltoztatása: kattintson a fekete keresztel jelölt zöld gombra ráközelítéshez, a vonallal jelölt zöld gombra távolításhoz, vagy a zöld nyilakra a szomszédos térképek eléréséhez.


METAR-TAF: